blog-images.homethangs.com - /2017/10/


[To Parent Directory]

10/24/2017 1:34 PM 3294 26-Single-Bathroom-Vanity-Cabinet-in-Urban-Gray-238-104-V26-UGR-by-James-Martin-150x150.jpg
10/24/2017 1:34 PM 6506 26-Single-Bathroom-Vanity-Cabinet-in-Urban-Gray-238-104-V26-UGR-by-James-Martin-169x300.jpg
10/24/2017 1:34 PM 24878 26-Single-Bathroom-Vanity-Cabinet-in-Urban-Gray-238-104-V26-UGR-by-James-Martin.jpg
10/24/2017 1:37 PM 3610 29-Single-Sink-Bathroom-Vanity-Set-Espresso-W-Brushed-Nickel-Faucet-MS-560-G-ES-001-by-Virtu-150x150.jpg
10/24/2017 1:37 PM 8076 29-Single-Sink-Bathroom-Vanity-Set-Espresso-W-Brushed-Nickel-Faucet-MS-560-G-ES-001-by-Virtu-239x300.jpg
10/24/2017 1:37 PM 31866 29-Single-Sink-Bathroom-Vanity-Set-Espresso-W-Brushed-Nickel-Faucet-MS-560-G-ES-001-by-Virtu.jpg
10/24/2017 1:40 PM 5441 30-Single-Bathroom-Vanity-in-Vintage-Vanilla-655-V30G-VV-AF-150x150.jpg
10/24/2017 1:40 PM 15670 30-Single-Bathroom-Vanity-in-Vintage-Vanilla-655-V30G-VV-AF-291x300.jpg
10/24/2017 1:40 PM 64879 30-Single-Bathroom-Vanity-in-Vintage-Vanilla-655-V30G-VV-AF.jpg
10/20/2017 6:21 PM 5732 Barrier-free-spaces-have-become-the-norm-in-contemporary-interior-design-and-that-means-staircases-too-by-Ehrlich-Yanai-Rhee-Chaney-Architects-150x150.jpg
10/20/2017 6:21 PM 12627 Barrier-free-spaces-have-become-the-norm-in-contemporary-interior-design-and-that-means-staircases-too-by-Ehrlich-Yanai-Rhee-Chaney-Architects-224x300.jpg
10/20/2017 6:21 PM 51766 Barrier-free-spaces-have-become-the-norm-in-contemporary-interior-design-and-that-means-staircases-too-by-Ehrlich-Yanai-Rhee-Chaney-Architects.jpg
10/29/2017 7:10 PM 4018 bathroom-vanity-150x150.jpg
10/29/2017 7:10 PM 10681 bathroom-vanity-298x300.jpg
10/29/2017 7:10 PM 46188 bathroom-vanity-768x774.jpg
10/29/2017 7:10 PM 50855 bathroom-vanity.jpg
10/1/2017 8:28 PM 6419 bats-150x150.jpg
10/1/2017 8:28 PM 13101 bats-300x174.jpg
10/1/2017 8:28 PM 68570 bats-768x446.jpg
10/4/2017 1:43 PM 44518 bats-e1507142600314.jpg
10/4/2017 1:43 PM 5711 bats-e1507142627296-150x150.jpg
10/4/2017 1:43 PM 9322 bats-e1507142627296-300x110.jpg
11/19/2017 1:15 PM 24578 bats-e1507142627296-630x200.jpg
10/4/2017 1:43 PM 29378 bats-e1507142627296.jpg
10/1/2017 8:28 PM 91638 bats.jpg
10/20/2017 6:09 PM 5837 Even-with-a-more-traditional-staircase-you-can-still-make-use-of-the-space-underneath-by-Structures-Building-Inc.-150x150.jpg
10/20/2017 6:09 PM 11867 Even-with-a-more-traditional-staircase-you-can-still-make-use-of-the-space-underneath-by-Structures-Building-Inc.-300x209.jpg
10/20/2017 6:09 PM 45968 Even-with-a-more-traditional-staircase-you-can-still-make-use-of-the-space-underneath-by-Structures-Building-Inc..jpg
10/27/2017 12:03 PM 83794 freestanding-tub-1024x747.jpg
10/27/2017 12:03 PM 4129 freestanding-tub-150x150.jpg
10/27/2017 12:03 PM 11422 freestanding-tub-300x219.jpg
10/27/2017 12:03 PM 52418 freestanding-tub-768x561.jpg
11/5/2017 4:32 PM 36572 freestanding-tub-e1509917576179.jpg
11/5/2017 4:33 PM 2818 freestanding-tub-e1509917595493-150x150.jpg
11/5/2017 4:33 PM 7494 freestanding-tub-e1509917595493-300x152.jpg
11/19/2017 1:08 PM 10995 freestanding-tub-e1509917595493-630x200.jpg
11/5/2017 4:33 PM 22737 freestanding-tub-e1509917595493.jpg
10/27/2017 12:03 PM 110297 freestanding-tub.jpg
10/13/2017 4:50 PM 6504 Hall-Stand-With-Seat-And-Oval-Mirror-IN-25-from-Harris-Furniture-150x150.jpg
10/13/2017 4:50 PM 11894 Hall-Stand-With-Seat-And-Oval-Mirror-IN-25-from-Harris-Furniture-161x300.jpg
10/13/2017 4:50 PM 44439 Hall-Stand-With-Seat-And-Oval-Mirror-IN-25-from-Harris-Furniture.jpg
10/14/2017 2:59 PM 5080 hallstands-150x150.jpg
10/14/2017 2:59 PM 7035 hallstands-300x95.jpg
11/19/2017 1:43 PM 23991 hallstands-630x200.jpg
10/14/2017 2:59 PM 40917 hallstands.jpg
10/13/2017 4:50 PM 3296 Message-Board-With-Coat-Hooks-128-1015-from-Sterling-Lighting-1-150x150.jpg
10/13/2017 4:50 PM 8377 Message-Board-With-Coat-Hooks-128-1015-from-Sterling-Lighting-1-216x300.jpg
10/13/2017 4:50 PM 38172 Message-Board-With-Coat-Hooks-128-1015-from-Sterling-Lighting-1.jpg
10/13/2017 4:49 PM 3311 Message-Board-With-Coat-Hooks-128-1015-from-Sterling-Lighting-150x150.jpg
10/13/2017 4:49 PM 8420 Message-Board-With-Coat-Hooks-128-1015-from-Sterling-Lighting-216x300.jpg
10/13/2017 4:49 PM 38146 Message-Board-With-Coat-Hooks-128-1015-from-Sterling-Lighting.jpg
10/20/2017 6:12 PM 5482 Minimalist-staircases-make-the-most-of-big-windows-and-natural-light-making-your-space-feel-brighter-and-more-open-by-The-Lagasse-Group-LLC-150x150.jpg
10/20/2017 6:12 PM 13960 Minimalist-staircases-make-the-most-of-big-windows-and-natural-light-making-your-space-feel-brighter-and-more-open-by-The-Lagasse-Group-LLC-259x300.jpg
10/20/2017 6:12 PM 55718 Minimalist-staircases-make-the-most-of-big-windows-and-natural-light-making-your-space-feel-brighter-and-more-open-by-The-Lagasse-Group-LLC.jpg
10/20/2017 6:22 PM 5191 modern-staircases-150x150.jpg
10/20/2017 6:22 PM 5539 modern-staircases-300x95.jpg
11/19/2017 12:59 PM 17754 modern-staircases-630x200.jpg
10/20/2017 6:22 PM 29439 modern-staircases.jpg
10/13/2017 4:44 PM 7675 Riyo-Distressed-Hall-Tree-25561-from-Uttermost-150x150.jpg
10/13/2017 4:44 PM 19249 Riyo-Distressed-Hall-Tree-25561-from-Uttermost-225x300.jpg
10/13/2017 4:44 PM 75285 Riyo-Distressed-Hall-Tree-25561-from-Uttermost.jpg
10/13/2017 4:47 PM 7591 Sassia-Red-Round-MIrror-05029-from-Uttermost-150x150.jpg
10/13/2017 4:47 PM 23129 Sassia-Red-Round-MIrror-05029-from-Uttermost-282x300.jpg
10/13/2017 4:47 PM 98253 Sassia-Red-Round-MIrror-05029-from-Uttermost.jpg
10/28/2017 7:58 AM 4020 shower-head-150x150.jpg
10/28/2017 7:58 AM 8939 shower-head-249x300.jpg
10/28/2017 7:58 AM 22748 shower-head.jpg
10/24/2017 1:39 PM 6052 Single-Hand-Painted-Bathroom-Vanity-300-V26-HP01-by-James-Martin-150x150.jpg
10/24/2017 1:39 PM 13862 Single-Hand-Painted-Bathroom-Vanity-300-V26-HP01-by-James-Martin-214x300.jpg
10/24/2017 1:39 PM 52028 Single-Hand-Painted-Bathroom-Vanity-300-V26-HP01-by-James-Martin.jpg
10/1/2017 6:53 PM 8567 skull-clock-150x150.jpg
10/1/2017 6:53 PM 27706 skull-clock-300x300.jpg
10/1/2017 6:53 PM 132379 skull-clock-768x766.jpg
10/1/2017 6:53 PM 168758 skull-clock.jpg
10/6/2017 1:16 PM 3796 small-bathroom-2-150x150.jpg
10/6/2017 1:16 PM 4107 small-bathroom-2-300x95.jpg
11/19/2017 1:08 PM 12990 small-bathroom-2-630x200.jpg
10/6/2017 1:16 PM 21579 small-bathroom-2.jpg
10/24/2017 1:33 PM 3788 Solid-Wood-Vanity-in-Cinnamon-550-V26-CIN-by-James-Martin-150x150.jpg
10/24/2017 1:33 PM 8172 Solid-Wood-Vanity-in-Cinnamon-550-V26-CIN-by-James-Martin-230x300.jpg
10/24/2017 1:33 PM 39509 Solid-Wood-Vanity-in-Cinnamon-550-V26-CIN-by-James-Martin.jpg
10/6/2017 12:43 PM 4811 The-best-things-for-a-small-bathrooms-style-and-storage-are-the-same-scaled-down-fixtures-mounted-to-the-wall-by-Darci-Hether-New-York-150x150.jpg
10/6/2017 12:43 PM 11811 The-best-things-for-a-small-bathrooms-style-and-storage-are-the-same-scaled-down-fixtures-mounted-to-the-wall-by-Darci-Hether-New-York-256x300.jpg
10/6/2017 12:43 PM 75519 The-best-things-for-a-small-bathrooms-style-and-storage-are-the-same-scaled-down-fixtures-mounted-to-the-wall-by-Darci-Hether-New-York.jpg
10/20/2017 6:05 PM 6902 The-open-feel-of-modern-staircases-makes-them-comfortable-enough-to-use-the-walls-for-storage-by-Feeney-Inc.-150x150.jpg
10/20/2017 6:05 PM 17443 The-open-feel-of-modern-staircases-makes-them-comfortable-enough-to-use-the-walls-for-storage-by-Feeney-Inc.-225x300.jpg
10/20/2017 6:05 PM 73616 The-open-feel-of-modern-staircases-makes-them-comfortable-enough-to-use-the-walls-for-storage-by-Feeney-Inc..jpg
10/13/2017 4:45 PM 7404 The-Regents-Park-Hall-Stand-AF7248-from-Toscano-150x150.jpg
10/13/2017 4:45 PM 19644 The-Regents-Park-Hall-Stand-AF7248-from-Toscano-252x300.jpg
10/13/2017 4:45 PM 77459 The-Regents-Park-Hall-Stand-AF7248-from-Toscano.jpg
10/29/2017 7:21 PM 3817 toilet-150x150.jpg
10/29/2017 7:21 PM 11318 toilet-300x300.jpg
10/29/2017 7:21 PM 48420 toilet-768x771.jpg
10/29/2017 7:21 PM 53235 toilet.jpg
10/20/2017 6:16 PM 7229 Trimming-the-bulk-from-a-modern-staircase-makes-them-both-more-compact-and-more-flexible-by-Andrea-Swan-Swan-Architecture-150x150.jpg
10/20/2017 6:16 PM 14929 Trimming-the-bulk-from-a-modern-staircase-makes-them-both-more-compact-and-more-flexible-by-Andrea-Swan-Swan-Architecture-200x300.jpg
10/20/2017 6:16 PM 68631 Trimming-the-bulk-from-a-modern-staircase-makes-them-both-more-compact-and-more-flexible-by-Andrea-Swan-Swan-Architecture.jpg
10/13/2017 4:46 PM 6544 Vanita-47-MIrror-and-Console-MR1253-WHIT-SJF-from-Whiteline-Imports-150x150.jpg
10/13/2017 4:46 PM 16170 Vanita-47-MIrror-and-Console-MR1253-WHIT-SJF-from-Whiteline-Imports-236x300.jpg
10/13/2017 4:46 PM 71498 Vanita-47-MIrror-and-Console-MR1253-WHIT-SJF-from-Whiteline-Imports.jpg
10/8/2017 4:05 PM 4753 vanity-1-150x150.jpg
10/8/2017 4:05 PM 10822 vanity-1-196x300.jpg
10/8/2017 4:05 PM 52008 vanity-1.jpg
10/20/2017 12:11 PM 3682 vanity-11-150x150.jpg
10/20/2017 12:11 PM 8446 vanity-11-258x300.jpg
10/20/2017 12:11 PM 21338 vanity-11.jpg
10/20/2017 12:14 PM 3179 vanity-12-150x150.jpg
10/20/2017 12:14 PM 6887 vanity-12-183x300.jpg
10/20/2017 12:14 PM 30310 vanity-12.jpg
10/20/2017 2:47 PM 5561 vanity-13-150x150.jpg
10/20/2017 2:47 PM 15280 vanity-13-300x296.jpg
10/24/2017 1:16 PM 45568 vanity-13-e1508868968524.jpg
10/24/2017 1:16 PM 5066 vanity-13-e1508868982408-150x150.jpg
10/24/2017 1:16 PM 9560 vanity-13-e1508868982408-300x181.jpg
10/24/2017 1:16 PM 28310 vanity-13-e1508868982408.jpg
10/24/2017 1:16 PM 5048 vanity-13-e1508868999974-150x150.jpg
10/24/2017 1:16 PM 7758 vanity-13-e1508868999974-300x141.jpg
11/19/2017 1:43 PM 16343 vanity-13-e1508868999974-630x200.jpg
10/24/2017 1:16 PM 23212 vanity-13-e1508868999974.jpg
10/20/2017 2:47 PM 65442 vanity-13.jpg
10/29/2017 7:17 PM 102579 vanity-2-1-1024x777.jpg
10/29/2017 7:17 PM 5631 vanity-2-1-150x150.jpg
10/29/2017 7:17 PM 12827 vanity-2-1-300x227.jpg
10/29/2017 7:17 PM 63301 vanity-2-1-768x582.jpg
10/29/2017 7:17 PM 128189 vanity-2-1.jpg
10/8/2017 5:02 PM 5231 vanity-2-141x300.jpg
10/8/2017 5:02 PM 2893 vanity-2-150x150.jpg
10/8/2017 5:02 PM 21723 vanity-2.jpg
10/8/2017 5:04 PM 5067 vanity-3-150x150.jpg
10/8/2017 5:04 PM 10764 vanity-3-199x300.jpg
10/8/2017 5:04 PM 51564 vanity-3.jpg
10/8/2017 5:06 PM 5151 vanity-4-150x150.jpg
10/8/2017 5:06 PM 16811 vanity-4-300x300.jpg
10/8/2017 5:06 PM 83454 vanity-4-768x765.jpg
10/12/2017 6:30 PM 55338 vanity-4-e1507851053574.jpg
10/12/2017 6:31 PM 4634 vanity-4-e1507851075803-150x150.jpg
10/12/2017 6:31 PM 10133 vanity-4-e1507851075803-300x147.jpg
11/19/2017 1:43 PM 22026 vanity-4-e1507851075803-630x200.jpg
10/12/2017 6:31 PM 32851 vanity-4-e1507851075803.jpg
10/8/2017 5:06 PM 115211 vanity-4.jpg
10/8/2017 5:08 PM 6077 vanity-5-150x150.jpg
10/8/2017 5:08 PM 13990 vanity-5-213x300.jpg
10/12/2017 5:44 PM 68681 vanity-5-e1507848295782.jpg
10/12/2017 5:45 PM 6309 vanity-5-e1507848308750-150x150.jpg
10/12/2017 5:45 PM 11389 vanity-5-e1507848308750-300x186.jpg
10/12/2017 5:45 PM 32294 vanity-5-e1507848308750.jpg
10/8/2017 5:08 PM 71587 vanity-5.jpg
10/8/2017 5:10 PM 4791 vanity-6-150x150.jpg
10/8/2017 5:10 PM 10362 vanity-6-196x300.jpg
10/8/2017 5:10 PM 47745 vanity-6.jpg
10/20/2017 2:17 PM 3674 Virtu-MS560GES001-150x150.jpg
10/20/2017 2:17 PM 8871 Virtu-MS560GES001-300x300.jpg
10/20/2017 2:17 PM 3474 Virtu-MS560GES001-e1508527062225-150x150.jpg
10/20/2017 2:17 PM 7965 Virtu-MS560GES001-e1508527062225-247x300.jpg
10/20/2017 2:17 PM 11065 Virtu-MS560GES001-e1508527062225.jpg
10/20/2017 2:17 PM 17863 Virtu-MS560GES001.jpg
10/1/2017 7:08 PM 134925 welcome-sign-1024x730.jpg
10/1/2017 7:08 PM 6754 welcome-sign-150x150.jpg
10/1/2017 7:08 PM 15302 welcome-sign-300x214.jpg
10/1/2017 7:08 PM 83899 welcome-sign-768x547.jpg
10/1/2017 7:08 PM 170329 welcome-sign.jpg
10/20/2017 6:01 PM 7499 When-its-opened-up-the-space-underneath-your-stairs-can-make-a-really-cozy-sitting-area-by-Denton-House-Design-Studio-150x150.jpg
10/20/2017 6:01 PM 17776 When-its-opened-up-the-space-underneath-your-stairs-can-make-a-really-cozy-sitting-area-by-Denton-House-Design-Studio-300x203.jpg
10/20/2017 6:01 PM 78596 When-its-opened-up-the-space-underneath-your-stairs-can-make-a-really-cozy-sitting-area-by-Denton-House-Design-Studio.jpg